sensor_id;sensor_type;location;lat;lon;timestamp;pressure;altitude;pressure_sealevel;temperature;humidity
76374;BME280;65197;50.164;8.012;2024-01-15T00:00:42;73647.28;;;-144.13;100.00
76374;BME280;65197;50.164;8.012;2024-01-15T00:03:07;73649.22;;;-144.13;100.00
76374;BME280;65197;50.164;8.012;2024-01-15T00:05:33;73649.22;;;-144.13;100.00
76374;BME280;65197;50.164;8.012;2024-01-15T00:07:59;73658.97;;;-144.13;100.00
76374;BME280;65197;50.164;8.012;2024-01-15T00:10:24;73649.22;;;-144.13;100.00
76374;BME280;65197;50.164;8.012;2024-01-15T00:12:50;73666.78;;;-144.13;100.00
76374;BME280;65197;50.164;8.012;2024-01-15T00:15:15;73655.06;;;-144.13;100.00
76374;BME280;65197;50.164;8.012;2024-01-15T00:17:41;73647.28;;;-144.13;100.00
76374;BME280;65197;50.164;8.012;2024-01-15T00:20:07;73651.19;;;-144.13;100.00
76374;BME280;65197;50.164;8.012;2024-01-15T00:22:32;73655.06;;;-144.13;100.00
76374;BME280;65197;50.164;8.012;2024-01-15T00:25:01;73647.28;;;-144.13;100.00
76374;BME280;65197;50.164;8.012;2024-01-15T00:27:26;73645.31;;;-144.13;100.00
76374;BME280;65197;50.164;8.012;2024-01-15T00:29:52;73641.41;;;-144.13;100.00
76374;BME280;65197;50.164;8.012;2024-01-15T00:32:17;73645.31;;;-144.13;100.00
76374;BME280;65197;50.164;8.012;2024-01-15T00:34:43;73643.38;;;-144.13;100.00
76374;BME280;65197;50.164;8.012;2024-01-15T00:37:08;73639.47;;;-144.13;100.00
76374;BME280;65197;50.164;8.012;2024-01-15T00:39:34;73641.41;;;-144.13;100.00
76374;BME280;65197;50.164;8.012;2024-01-15T00:41:59;73635.56;;;-144.13;100.00
76374;BME280;65197;50.164;8.012;2024-01-15T00:44:25;73623.88;;;-144.13;100.00
76374;BME280;65197;50.164;8.012;2024-01-15T00:46:51;73629.72;;;-144.13;100.00
76374;BME280;65197;50.164;8.012;2024-01-15T00:49:17;73631.66;;;-144.13;100.00
76374;BME280;65197;50.164;8.012;2024-01-15T00:51:43;73627.78;;;-144.13;100.00
76374;BME280;65197;50.164;8.012;2024-01-15T00:54:08;73631.66;;;-144.13;100.00
76374;BME280;65197;50.164;8.012;2024-01-15T00:56:34;73629.72;;;-144.13;100.00
76374;BME280;65197;50.164;8.012;2024-01-15T00:59:00;73623.88;;;-144.13;100.00
76374;BME280;65197;50.164;8.012;2024-01-15T01:01:25;73623.88;;;-144.13;100.00
76374;BME280;65197;50.164;8.012;2024-01-15T01:03:51;73627.78;;;-144.13;100.00
76374;BME280;65197;50.164;8.012;2024-01-15T01:06:17;73627.78;;;-144.13;100.00
76374;BME280;65197;50.164;8.012;2024-01-15T01:08:42;73631.66;;;-144.13;100.00
76374;BME280;65197;50.164;8.012;2024-01-15T01:11:13;73616.06;;;-144.13;100.00
76374;BME280;65197;50.164;8.012;2024-01-15T01:13:38;73616.06;;;-144.13;100.00
76374;BME280;65197;50.164;8.012;2024-01-15T01:16:04;73616.06;;;-144.13;100.00
76374;BME280;65197;50.164;8.012;2024-01-15T01:18:29;73616.06;;;-144.13;100.00
76374;BME280;65197;50.164;8.012;2024-01-15T01:20:55;73606.31;;;-144.13;100.00
76374;BME280;65197;50.164;8.012;2024-01-15T01:23:20;73612.16;;;-144.13;100.00
76374;BME280;65197;50.164;8.012;2024-01-15T01:25:46;73600.47;;;-144.13;100.00
76374;BME280;65197;50.164;8.012;2024-01-15T01:28:12;73602.41;;;-144.13;100.00
76374;BME280;65197;50.164;8.012;2024-01-15T01:30:37;73614.13;;;-144.13;100.00
76374;BME280;65197;50.164;8.012;2024-01-15T01:33:03;73604.34;;;-144.13;100.00
76374;BME280;65197;50.164;8.012;2024-01-15T01:35:28;73612.16;;;-144.13;100.00
76374;BME280;65197;50.164;8.012;2024-01-15T01:37:54;73612.16;;;-144.13;100.00
76374;BME280;65197;50.164;8.012;2024-01-15T01:40:19;73608.25;;;-144.13;100.00
76374;BME280;65197;50.164;8.012;2024-01-15T01:42:45;73604.34;;;-144.13;100.00
76374;BME280;65197;50.164;8.012;2024-01-15T01:45:11;73604.34;;;-144.13;100.00
76374;BME280;65197;50.164;8.012;2024-01-15T01:47:37;73612.16;;;-144.13;100.00
76374;BME280;65197;50.164;8.012;2024-01-15T01:50:03;73614.13;;;-144.13;100.00
76374;BME280;65197;50.164;8.012;2024-01-15T01:52:30;73604.34;;;-144.13;100.00
76374;BME280;65197;50.164;8.012;2024-01-15T01:54:56;73608.25;;;-144.13;100.00
76374;BME280;65197;50.164;8.012;2024-01-15T01:57:22;73604.34;;;-144.13;100.00
76374;BME280;65197;50.164;8.012;2024-01-15T01:59:48;73600.47;;;-144.13;100.00
76374;BME280;65197;50.164;8.012;2024-01-15T02:02:14;73598.50;;;-144.13;100.00
76374;BME280;65197;50.164;8.012;2024-01-15T02:04:40;73604.34;;;-144.13;100.00
76374;BME280;65197;50.164;8.012;2024-01-15T02:07:06;73602.41;;;-144.13;100.00
76374;BME280;65197;50.164;8.012;2024-01-15T02:09:32;73608.25;;;-144.13;100.00
76374;BME280;65197;50.164;8.012;2024-01-15T02:11:57;73608.25;;;-144.13;100.00
76374;BME280;65197;50.164;8.012;2024-01-15T02:14:23;73600.47;;;-144.13;100.00
76374;BME280;65197;50.164;8.012;2024-01-15T02:16:49;73596.56;;;-144.13;100.00
76374;BME280;65197;50.164;8.012;2024-01-15T02:19:18;73602.41;;;-144.13;100.00
76374;BME280;65197;50.164;8.012;2024-01-15T02:21:44;73606.31;;;-144.13;100.00
76374;BME280;65197;50.164;8.012;2024-01-15T02:24:11;73596.56;;;-144.13;100.00
76374;BME280;65197;50.164;8.012;2024-01-15T02:26:37;73592.66;;;-144.13;100.00
76374;BME280;65197;50.164;8.012;2024-01-15T02:29:05;73590.69;;;-144.13;100.00
76374;BME280;65197;50.164;8.012;2024-01-15T02:31:32;73586.81;;;-144.13;100.00
76374;BME280;65197;50.164;8.012;2024-01-15T02:33:57;73588.75;;;-144.13;100.00
76374;BME280;65197;50.164;8.012;2024-01-15T02:36:23;73596.56;;;-144.13;100.00
76374;BME280;65197;50.164;8.012;2024-01-15T02:38:48;73592.66;;;-144.13;100.00
76374;BME280;65197;50.164;8.012;2024-01-15T02:41:14;73594.59;;;-144.13;100.00
76374;BME280;65197;50.164;8.012;2024-01-15T02:43:41;73586.81;;;-144.13;100.00
76374;BME280;65197;50.164;8.012;2024-01-15T02:46:07;73584.84;;;-144.13;100.00
76374;BME280;65197;50.164;8.012;2024-01-15T02:48:32;73588.75;;;-144.13;100.00
76374;BME280;65197;50.164;8.012;2024-01-15T02:51:00;73580.94;;;-144.13;100.00
76374;BME280;65197;50.164;8.012;2024-01-15T02:53:26;73582.91;;;-144.13;100.00
76374;BME280;65197;50.164;8.012;2024-01-15T02:55:52;73580.94;;;-144.13;100.00
76374;BME280;65197;50.164;8.012;2024-01-15T02:58:17;73575.09;;;-144.13;100.00
76374;BME280;65197;50.164;8.012;2024-01-15T03:00:43;73582.91;;;-144.13;100.00
76374;BME280;65197;50.164;8.012;2024-01-15T03:03:08;73586.81;;;-144.13;100.00
76374;BME280;65197;50.164;8.012;2024-01-15T03:05:34;73588.75;;;-144.13;100.00
76374;BME280;65197;50.164;8.012;2024-01-15T03:07:59;73582.91;;;-144.13;100.00
76374;BME280;65197;50.164;8.012;2024-01-15T03:10:25;73580.94;;;-144.13;100.00
76374;BME280;65197;50.164;8.012;2024-01-15T03:12:51;73573.16;;;-144.13;100.00
76374;BME280;65197;50.164;8.012;2024-01-15T03:15:16;73573.16;;;-144.13;100.00
76374;BME280;65197;50.164;8.012;2024-01-15T03:17:43;73577.03;;;-144.13;100.00
76374;BME280;65197;50.164;8.012;2024-01-15T03:20:10;73569.25;;;-144.13;100.00
76374;BME280;65197;50.164;8.012;2024-01-15T03:22:35;73569.25;;;-144.13;100.00
76374;BME280;65197;50.164;8.012;2024-01-15T03:25:01;73569.25;;;-144.13;100.00
76374;BME280;65197;50.164;8.012;2024-01-15T03:27:27;73567.28;;;-144.13;100.00
76374;BME280;65197;50.164;8.012;2024-01-15T03:29:52;73561.44;;;-144.13;100.00
76374;BME280;65197;50.164;8.012;2024-01-15T03:32:18;73561.44;;;-144.13;100.00
76374;BME280;65197;50.164;8.012;2024-01-15T03:34:45;73569.25;;;-144.13;100.00
76374;BME280;65197;50.164;8.012;2024-01-15T03:37:11;73577.03;;;-144.13;100.00
76374;BME280;65197;50.164;8.012;2024-01-15T03:39:36;73561.44;;;-144.13;100.00
76374;BME280;65197;50.164;8.012;2024-01-15T03:42:02;73555.59;;;-144.13;100.00
76374;BME280;65197;50.164;8.012;2024-01-15T03:44:28;73549.75;;;-144.13;100.00
76374;BME280;65197;50.164;8.012;2024-01-15T03:46:53;73543.88;;;-144.13;100.00
76374;BME280;65197;50.164;8.012;2024-01-15T03:49:19;73547.78;;;-144.13;100.00
76374;BME280;65197;50.164;8.012;2024-01-15T03:51:44;73545.84;;;-144.13;100.00
76374;BME280;65197;50.164;8.012;2024-01-15T03:54:10;73549.75;;;-144.13;100.00
76374;BME280;65197;50.164;8.012;2024-01-15T03:56:36;73543.88;;;-144.13;100.00
76374;BME280;65197;50.164;8.012;2024-01-15T03:59:01;73539.97;;;-144.13;100.00
76374;BME280;65197;50.164;8.012;2024-01-15T04:01:27;73541.94;;;-144.13;100.00
76374;BME280;65197;50.164;8.012;2024-01-15T04:03:52;73538.03;;;-144.13;100.00
76374;BME280;65197;50.164;8.012;2024-01-15T04:06:18;73539.97;;;-144.13;100.00
76374;BME280;65197;50.164;8.012;2024-01-15T04:08:44;73534.13;;;-144.13;100.00
76374;BME280;65197;50.164;8.012;2024-01-15T04:11:09;73538.03;;;-144.13;100.00
76374;BME280;65197;50.164;8.012;2024-01-15T04:13:35;73539.97;;;-144.13;100.00
76374;BME280;65197;50.164;8.012;2024-01-15T04:16:01;73530.22;;;-144.13;100.00
76374;BME280;65197;50.164;8.012;2024-01-15T04:18:27;73528.28;;;-144.13;100.00
76374;BME280;65197;50.164;8.012;2024-01-15T04:20:52;73524.38;;;-144.13;100.00
76374;BME280;65197;50.164;8.012;2024-01-15T04:23:18;73526.31;;;-144.13;100.00
76374;BME280;65197;50.164;8.012;2024-01-15T04:25:43;73530.22;;;-144.13;100.00
76374;BME280;65197;50.164;8.012;2024-01-15T04:28:11;73530.22;;;-144.13;100.00
76374;BME280;65197;50.164;8.012;2024-01-15T04:30:37;73526.31;;;-144.13;100.00
76374;BME280;65197;50.164;8.012;2024-01-15T04:33:02;73530.22;;;-144.13;100.00
76374;BME280;65197;50.164;8.012;2024-01-15T04:35:28;73524.38;;;-144.13;100.00
76374;BME280;65197;50.164;8.012;2024-01-15T04:37:54;73526.31;;;-144.13;100.00
76374;BME280;65197;50.164;8.012;2024-01-15T04:40:19;73518.53;;;-144.13;100.00
76374;BME280;65197;50.164;8.012;2024-01-15T04:42:45;73518.53;;;-144.13;100.00
76374;BME280;65197;50.164;8.012;2024-01-15T04:45:13;73514.63;;;-144.13;100.00
76374;BME280;65197;50.164;8.012;2024-01-15T04:47:39;73516.56;;;-144.13;100.00
76374;BME280;65197;50.164;8.012;2024-01-15T04:50:05;73510.72;;;-144.13;100.00
76374;BME280;65197;50.164;8.012;2024-01-15T04:52:31;73508.78;;;-144.13;100.00
76374;BME280;65197;50.164;8.012;2024-01-15T04:54:56;73506.81;;;-144.13;100.00
76374;BME280;65197;50.164;8.012;2024-01-15T04:57:22;73502.91;;;-144.13;100.00
76374;BME280;65197;50.164;8.012;2024-01-15T04:59:48;73499.03;;;-144.13;100.00
76374;BME280;65197;50.164;8.012;2024-01-15T05:02:13;73495.13;;;-144.13;100.00
76374;BME280;65197;50.164;8.012;2024-01-15T05:04:39;73495.13;;;-144.13;100.00
76374;BME280;65197;50.164;8.012;2024-01-15T05:07:05;73495.13;;;-144.13;100.00
76374;BME280;65197;50.164;8.012;2024-01-15T05:09:30;73491.22;;;-144.13;100.00
76374;BME280;65197;50.164;8.012;2024-01-15T05:11:56;73491.22;;;-144.13;100.00
76374;BME280;65197;50.164;8.012;2024-01-15T05:14:22;73485.38;;;-144.13;100.00
76374;BME280;65197;50.164;8.012;2024-01-15T05:16:48;73491.22;;;-144.13;100.00
76374;BME280;65197;50.164;8.012;2024-01-15T05:19:14;73487.31;;;-144.13;100.00
76374;BME280;65197;50.164;8.012;2024-01-15T05:21:40;73491.22;;;-144.13;100.00
76374;BME280;65197;50.164;8.012;2024-01-15T05:24:07;73479.50;;;-144.13;100.00
76374;BME280;65197;50.164;8.012;2024-01-15T05:26:33;73487.31;;;-144.13;100.00
76374;BME280;65197;50.164;8.012;2024-01-15T05:28:59;73483.41;;;-144.13;100.00
76374;BME280;65197;50.164;8.012;2024-01-15T05:31:24;73475.59;;;-144.13;100.00
76374;BME280;65197;50.164;8.012;2024-01-15T05:33:50;73481.47;;;-144.13;100.00
76374;BME280;65197;50.164;8.012;2024-01-15T05:36:16;73481.47;;;-144.13;100.00
76374;BME280;65197;50.164;8.012;2024-01-15T05:38:41;73471.72;;;-144.13;100.00
76374;BME280;65197;50.164;8.012;2024-01-15T05:41:07;73475.59;;;-144.13;100.00
76374;BME280;65197;50.164;8.012;2024-01-15T05:43:33;73463.91;;;-144.13;100.00
76374;BME280;65197;50.164;8.012;2024-01-15T05:45:58;73463.91;;;-144.13;100.00
76374;BME280;65197;50.164;8.012;2024-01-15T05:48:24;73463.91;;;-144.13;100.00
76374;BME280;65197;50.164;8.012;2024-01-15T05:50:49;73463.91;;;-144.13;100.00
76374;BME280;65197;50.164;8.012;2024-01-15T05:53:15;73467.81;;;-144.13;100.00
76374;BME280;65197;50.164;8.012;2024-01-15T05:55:40;73460.00;;;-144.13;100.00
76374;BME280;65197;50.164;8.012;2024-01-15T05:58:06;73456.09;;;-144.13;100.00
76374;BME280;65197;50.164;8.012;2024-01-15T06:00:32;73456.09;;;-144.13;100.00
76374;BME280;65197;50.164;8.012;2024-01-15T06:03:01;73450.25;;;-144.13;100.00
76374;BME280;65197;50.164;8.012;2024-01-15T06:05:27;73454.16;;;-144.13;100.00
76374;BME280;65197;50.164;8.012;2024-01-15T06:07:52;73450.25;;;-144.13;100.00
76374;BME280;65197;50.164;8.012;2024-01-15T06:10:18;73448.31;;;-144.13;100.00
76374;BME280;65197;50.164;8.012;2024-01-15T06:12:44;73456.09;;;-144.13;100.00
76374;BME280;65197;50.164;8.012;2024-01-15T06:15:10;73458.06;;;-144.13;100.00
76374;BME280;65197;50.164;8.012;2024-01-15T06:17:36;73456.09;;;-144.13;100.00
76374;BME280;65197;50.164;8.012;2024-01-15T06:20:02;73456.09;;;-144.13;100.00
76374;BME280;65197;50.164;8.012;2024-01-15T06:22:28;73460.00;;;-144.13;100.00
76374;BME280;65197;50.164;8.012;2024-01-15T06:24:54;73456.09;;;-144.13;100.00
76374;BME280;65197;50.164;8.012;2024-01-15T06:27:21;73461.97;;;-144.13;100.00
76374;BME280;65197;50.164;8.012;2024-01-15T06:29:46;73456.09;;;-144.13;100.00
76374;BME280;65197;50.164;8.012;2024-01-15T06:32:14;73454.16;;;-144.13;100.00
76374;BME280;65197;50.164;8.012;2024-01-15T06:34:40;73452.19;;;-144.13;100.00
76374;BME280;65197;50.164;8.012;2024-01-15T06:37:08;73456.09;;;-144.13;100.00
76374;BME280;65197;50.164;8.012;2024-01-15T06:39:34;73458.06;;;-144.13;100.00
76374;BME280;65197;50.164;8.012;2024-01-15T06:41:59;73456.09;;;-144.13;100.00
76374;BME280;65197;50.164;8.012;2024-01-15T06:44:25;73450.25;;;-144.13;100.00
76374;BME280;65197;50.164;8.012;2024-01-15T06:46:50;73460.00;;;-144.13;100.00
76374;BME280;65197;50.164;8.012;2024-01-15T06:49:17;73448.31;;;-144.13;100.00
76374;BME280;65197;50.164;8.012;2024-01-15T06:51:42;73452.19;;;-144.13;100.00
76374;BME280;65197;50.164;8.012;2024-01-15T06:54:08;73452.19;;;-144.13;100.00
76374;BME280;65197;50.164;8.012;2024-01-15T06:56:34;73444.41;;;-144.13;100.00
76374;BME280;65197;50.164;8.012;2024-01-15T06:58:59;73446.34;;;-144.13;100.00
76374;BME280;65197;50.164;8.012;2024-01-15T07:01:25;73448.31;;;-144.13;100.00
76374;BME280;65197;50.164;8.012;2024-01-15T07:03:50;73442.44;;;-144.13;100.00
76374;BME280;65197;50.164;8.012;2024-01-15T07:06:16;73448.31;;;-144.13;100.00
76374;BME280;65197;50.164;8.012;2024-01-15T07:08:42;73444.41;;;-144.13;100.00
76374;BME280;65197;50.164;8.012;2024-01-15T07:11:08;73444.41;;;-144.13;100.00
76374;BME280;65197;50.164;8.012;2024-01-15T07:13:35;73444.41;;;-144.13;100.00
76374;BME280;65197;50.164;8.012;2024-01-15T07:16:01;73450.25;;;-144.13;100.00
76374;BME280;65197;50.164;8.012;2024-01-15T07:18:26;73452.19;;;-144.13;100.00
76374;BME280;65197;50.164;8.012;2024-01-15T07:20:52;73452.19;;;-144.13;100.00
76374;BME280;65197;50.164;8.012;2024-01-15T07:23:18;73454.16;;;-144.13;100.00
76374;BME280;65197;50.164;8.012;2024-01-15T07:25:43;73452.19;;;-144.13;100.00
76374;BME280;65197;50.164;8.012;2024-01-15T07:28:10;73456.09;;;-144.13;100.00
76374;BME280;65197;50.164;8.012;2024-01-15T07:30:36;73444.41;;;-144.13;100.00
76374;BME280;65197;50.164;8.012;2024-01-15T07:33:04;73450.25;;;-144.13;100.00
76374;BME280;65197;50.164;8.012;2024-01-15T07:35:30;73446.34;;;-144.13;100.00
76374;BME280;65197;50.164;8.012;2024-01-15T07:37:56;73444.41;;;-144.13;100.00
76374;BME280;65197;50.164;8.012;2024-01-15T07:40:21;73442.44;;;-144.13;100.00
76374;BME280;65197;50.164;8.012;2024-01-15T07:42:47;73444.41;;;-144.13;100.00
76374;BME280;65197;50.164;8.012;2024-01-15T07:45:13;73436.59;;;-144.13;100.00
76374;BME280;65197;50.164;8.012;2024-01-15T07:47:38;73452.19;;;-144.13;100.00
76374;BME280;65197;50.164;8.012;2024-01-15T07:50:04;73444.41;;;-144.13;100.00
76374;BME280;65197;50.164;8.012;2024-01-15T07:52:30;73434.66;;;-144.13;100.00
76374;BME280;65197;50.164;8.012;2024-01-15T07:54:56;73436.59;;;-144.13;100.00
76374;BME280;65197;50.164;8.012;2024-01-15T07:57:22;73421.00;;;-144.13;100.00
76374;BME280;65197;50.164;8.012;2024-01-15T07:59:48;73422.94;;;-144.13;100.00
76374;BME280;65197;50.164;8.012;2024-01-15T08:02:15;73413.19;;;-144.13;100.00
76374;BME280;65197;50.164;8.012;2024-01-15T08:04:40;73413.19;;;-144.13;100.00
76374;BME280;65197;50.164;8.012;2024-01-15T08:07:06;73424.91;;;-144.13;100.00
76374;BME280;65197;50.164;8.012;2024-01-15T08:09:33;73417.09;;;-144.13;100.00
76374;BME280;65197;50.164;8.012;2024-01-15T08:11:59;73419.03;;;-144.13;100.00
76374;BME280;65197;50.164;8.012;2024-01-15T08:14:25;73415.13;;;-144.13;100.00
76374;BME280;65197;50.164;8.012;2024-01-15T08:16:50;73421.00;;;-144.13;100.00
76374;BME280;65197;50.164;8.012;2024-01-15T08:19:16;73415.13;;;-144.13;100.00
76374;BME280;65197;50.164;8.012;2024-01-15T08:21:41;73421.00;;;-144.13;100.00
76374;BME280;65197;50.164;8.012;2024-01-15T08:24:08;73411.25;;;-144.13;100.00
76374;BME280;65197;50.164;8.012;2024-01-15T08:26:34;73411.25;;;-144.13;100.00
76374;BME280;65197;50.164;8.012;2024-01-15T08:28:59;73413.19;;;-144.13;100.00
76374;BME280;65197;50.164;8.012;2024-01-15T08:31:25;73405.38;;;-144.13;100.00
76374;BME280;65197;50.164;8.012;2024-01-15T08:33:52;73409.28;;;-144.13;100.00
76374;BME280;65197;50.164;8.012;2024-01-15T08:36:18;73411.25;;;-144.13;100.00
76374;BME280;65197;50.164;8.012;2024-01-15T08:38:43;73401.47;;;-144.13;100.00
76374;BME280;65197;50.164;8.012;2024-01-15T08:41:10;73401.47;;;-144.13;100.00
76374;BME280;65197;50.164;8.012;2024-01-15T08:43:36;73401.47;;;-144.13;100.00
76374;BME280;65197;50.164;8.012;2024-01-15T08:46:02;73397.59;;;-144.13;100.00
76374;BME280;65197;50.164;8.012;2024-01-15T08:48:28;73401.47;;;-144.13;100.00
76374;BME280;65197;50.164;8.012;2024-01-15T08:50:54;73399.53;;;-144.13;100.00
76374;BME280;65197;50.164;8.012;2024-01-15T08:53:20;73397.59;;;-144.13;100.00
76374;BME280;65197;50.164;8.012;2024-01-15T08:55:46;73393.69;;;-144.13;100.00
76374;BME280;65197;50.164;8.012;2024-01-15T08:58:11;73401.47;;;-144.13;100.00
76374;BME280;65197;50.164;8.012;2024-01-15T09:00:37;73399.53;;;-144.13;100.00
76374;BME280;65197;50.164;8.012;2024-01-15T09:03:03;73405.38;;;-144.13;100.00
76374;BME280;65197;50.164;8.012;2024-01-15T09:05:28;73393.69;;;-144.13;100.00
76374;BME280;65197;50.164;8.012;2024-01-15T09:07:54;73385.88;;;-144.13;100.00
76374;BME280;65197;50.164;8.012;2024-01-15T09:10:20;73372.22;;;-144.13;100.00
76374;BME280;65197;50.164;8.012;2024-01-15T09:12:46;73370.28;;;-144.13;100.00
76374;BME280;65197;50.164;8.012;2024-01-15T09:15:12;73346.88;;;-144.13;100.00
76374;BME280;65197;50.164;8.012;2024-01-15T09:17:38;73278.59;;;-144.13;100.00
76374;BME280;65197;50.164;8.012;2024-01-15T09:20:04;73194.72;;;-144.13;100.00
76374;BME280;65197;50.164;8.012;2024-01-15T09:22:31;73017.22;;;-144.13;100.00
76374;BME280;65197;50.164;8.012;2024-01-15T09:24:56;72853.38;;;-144.13;100.00
76374;BME280;65197;50.164;8.012;2024-01-15T09:27:22;72925.56;;;-144.13;100.00
76374;BME280;65197;50.164;8.012;2024-01-15T09:29:48;72904.09;;;-144.13;100.00
76374;BME280;65197;50.164;8.012;2024-01-15T09:32:14;72896.28;;;-144.13;100.00
76374;BME280;65197;50.164;8.012;2024-01-15T09:34:41;72972.34;;;-144.13;100.00
76374;BME280;65197;50.164;8.012;2024-01-15T09:37:06;73003.56;;;-144.13;100.00
76374;BME280;65197;50.164;8.012;2024-01-15T09:39:32;73023.06;;;-144.13;100.00
76374;BME280;65197;50.164;8.012;2024-01-15T09:41:58;73058.19;;;-144.13;100.00
76374;BME280;65197;50.164;8.012;2024-01-15T09:44:23;73073.78;;;-144.13;100.00
76374;BME280;65197;50.164;8.012;2024-01-15T09:46:49;73079.63;;;-144.13;100.00
76374;BME280;65197;50.164;8.012;2024-01-15T09:49:17;73114.75;;;-144.13;100.00
76374;BME280;65197;50.164;8.012;2024-01-15T09:51:44;73171.31;;;-144.13;100.00
76374;BME280;65197;50.164;8.012;2024-01-15T09:54:09;73194.72;;;-144.13;100.00
76374;BME280;65197;50.164;8.012;2024-01-15T09:56:38;73208.38;;;-144.13;100.00
76374;BME280;65197;50.164;8.012;2024-01-15T09:59:06;73223.97;;;-144.13;100.00
76374;BME280;65197;50.164;8.012;2024-01-15T10:01:32;73214.22;;;-144.13;100.00
76374;BME280;65197;50.164;8.012;2024-01-15T10:04:01;73202.53;;;-144.13;100.00
76374;BME280;65197;50.164;8.012;2024-01-15T10:06:27;73214.22;;;-144.13;100.00
76374;BME280;65197;50.164;8.012;2024-01-15T10:08:54;73229.81;;;-144.13;100.00
76374;BME280;65197;50.164;8.012;2024-01-15T10:11:22;73237.63;;;-144.13;100.00
76374;BME280;65197;50.164;8.012;2024-01-15T10:13:47;73263.00;;;-144.13;100.00
76374;BME280;65197;50.164;8.012;2024-01-15T10:16:21;73245.44;;;-144.13;100.00
76374;BME280;65197;50.164;8.012;2024-01-15T10:18:48;73229.81;;;-144.13;100.00
76374;BME280;65197;50.164;8.012;2024-01-15T10:21:13;73214.22;;;-144.13;100.00
76374;BME280;65197;50.164;8.012;2024-01-15T10:23:39;73210.31;;;-144.13;100.00
76374;BME280;65197;50.164;8.012;2024-01-15T10:26:05;73206.41;;;-144.13;100.00
76374;BME280;65197;50.164;8.012;2024-01-15T10:28:31;73210.31;;;-144.13;100.00
76374;BME280;65197;50.164;8.012;2024-01-15T10:30:58;73229.81;;;-144.13;100.00
76374;BME280;65197;50.164;8.012;2024-01-15T10:33:27;73222.03;;;-144.13;100.00
76374;BME280;65197;50.164;8.012;2024-01-15T10:35:57;73214.22;;;-144.13;100.00
76374;BME280;65197;50.164;8.012;2024-01-15T10:38:23;73210.31;;;-144.13;100.00
76374;BME280;65197;50.164;8.012;2024-01-15T10:40:53;73190.81;;;-144.13;100.00
76374;BME280;65197;50.164;8.012;2024-01-15T10:43:19;73198.63;;;-144.13;100.00
76374;BME280;65197;50.164;8.012;2024-01-15T10:45:46;73192.78;;;-144.13;100.00
76374;BME280;65197;50.164;8.012;2024-01-15T10:48:12;73167.41;;;-144.13;100.00
76374;BME280;65197;50.164;8.012;2024-01-15T10:50:38;73147.91;;;-144.13;100.00
76374;BME280;65197;50.164;8.012;2024-01-15T10:53:04;73105.00;;;-144.13;100.00
76374;BME280;65197;50.164;8.012;2024-01-15T10:55:30;73108.91;;;-144.13;100.00
76374;BME280;65197;50.164;8.012;2024-01-15T10:57:58;73155.72;;;-144.13;100.00
76374;BME280;65197;50.164;8.012;2024-01-15T11:00:23;73165.47;;;-144.13;100.00
76374;BME280;65197;50.164;8.012;2024-01-15T11:02:51;73163.50;;;-144.13;100.00
76374;BME280;65197;50.164;8.012;2024-01-15T11:05:18;73147.91;;;-144.13;100.00
76374;BME280;65197;50.164;8.012;2024-01-15T11:07:48;73159.59;;;-144.13;100.00
76374;BME280;65197;50.164;8.012;2024-01-15T11:13:53;73155.72;;;-144.13;100.00
76374;BME280;65197;50.164;8.012;2024-01-15T11:16:01;73147.91;;;-144.13;100.00
76374;BME280;65197;50.164;8.012;2024-01-15T11:18:38;73144.00;;;-144.13;100.00
76374;BME280;65197;50.164;8.012;2024-01-15T11:23:53;73144.00;;;-144.13;100.00
76374;BME280;65197;50.164;8.012;2024-01-15T11:29:05;73171.31;;;-144.13;100.00
76374;BME280;65197;50.164;8.012;2024-01-15T11:34:09;73145.97;;;-144.13;100.00
76374;BME280;65197;50.164;8.012;2024-01-15T11:42:01;73126.44;;;-144.13;100.00
76374;BME280;65197;50.164;8.012;2024-01-15T11:44:29;73149.84;;;-144.13;100.00
76374;BME280;65197;50.164;8.012;2024-01-15T11:52:18;73136.19;;;-144.13;100.00
76374;BME280;65197;50.164;8.012;2024-01-15T11:55:01;73140.09;;;-144.13;100.00
76374;BME280;65197;50.164;8.012;2024-01-15T11:57:45;73147.91;;;-144.13;100.00
76374;BME280;65197;50.164;8.012;2024-01-15T12:00:11;73138.16;;;-144.13;100.00
76374;BME280;65197;50.164;8.012;2024-01-15T12:02:40;73138.16;;;-144.13;100.00
76374;BME280;65197;50.164;8.012;2024-01-15T12:05:07;73142.06;;;-144.13;100.00
76374;BME280;65197;50.164;8.012;2024-01-15T12:07:33;73144.00;;;-144.13;100.00
76374;BME280;65197;50.164;8.012;2024-01-15T12:09:59;73147.91;;;-144.13;100.00
76374;BME280;65197;50.164;8.012;2024-01-15T12:15:17;73144.00;;;-144.13;100.00
76374;BME280;65197;50.164;8.012;2024-01-15T12:17:43;73157.66;;;-144.13;100.00
76374;BME280;65197;50.164;8.012;2024-01-15T12:20:09;73157.66;;;-144.13;100.00
76374;BME280;65197;50.164;8.012;2024-01-15T12:22:35;73161.56;;;-144.13;100.00
76374;BME280;65197;50.164;8.012;2024-01-15T12:25:01;73163.50;;;-144.13;100.00
76374;BME280;65197;50.164;8.012;2024-01-15T12:27:26;73142.06;;;-144.13;100.00
76374;BME280;65197;50.164;8.012;2024-01-15T12:29:55;73151.81;;;-144.13;100.00
76374;BME280;65197;50.164;8.012;2024-01-15T12:32:20;73153.75;;;-144.13;100.00
76374;BME280;65197;50.164;8.012;2024-01-15T12:34:49;73140.09;;;-144.13;100.00
76374;BME280;65197;50.164;8.012;2024-01-15T12:37:14;73138.16;;;-144.13;100.00
76374;BME280;65197;50.164;8.012;2024-01-15T12:39:43;73120.59;;;-144.13;100.00
76374;BME280;65197;50.164;8.012;2024-01-15T12:42:09;73140.09;;;-144.13;100.00
76374;BME280;65197;50.164;8.012;2024-01-15T12:44:35;73136.19;;;-144.13;100.00
76374;BME280;65197;50.164;8.012;2024-01-15T12:47:04;73151.81;;;-144.13;100.00
76374;BME280;65197;50.164;8.012;2024-01-15T12:49:30;73153.75;;;-144.13;100.00